Terminal Aerodrome Forecast
Issued by NWS

Home | Current Version | Previous Version | Text Only | Print | Product List | Glossary On
Versions: 1 2 3 4 5 6 7 8 9 10 11 12 13 14 15 16 17 18 19
000
FTUS46 KMFR 012341
TAFOTH
TAF
KOTH 012341Z 0200/0224 27010KT P6SM OVC035
     FM020300 20004KT 5SM -RA BR OVC015
     FM021000 18005KT 5SM -SHRA BR BKN015 OVC035
     FM021700 18005KT P6SM VCSH SCT015 OVC035
     FM021900 31011KT P6SM VCSH BKN035 OVC050=

USA.gov is the U.S. government's official web portal to all federal, state and local government web resources and services.